»·PEaware :: SWA6360 KBUR-KSFO

SWA6360 :: KBUR-KSFO

FLIGHT INFORMATION

Flight Status: Arrived
Operator:
Southwest Airlines
More flights by this operator :: More flights under this callsign
Pilot: Paul A. (20189)
Aircraft: BOEING 737-700
(B737)
More flights by this aircraft type
Origin: KBUR Bob Hope-Burbank
United States
Destination: KSFO San Francisco Intl
United States
More flights between these airports :: More routes between these airports
Route: OROSZ2 COREZ MAKRS SERFR SERFR3
File this flight plan on PilotEdge
Remarks:
Altitude:
(Current/Filed)
32,000ft
Speed:
(Current/Filed)
455kts
Departed: 28-Nov-18 06:05 PM
Arrived: 28-Nov-18 07:03 PM
Distance/Time
Traveled:
283nm/0:58
Distance/Time
To Go:
Arrived

Flight Plot

Page will automatically refresh every two minutes.

Flight plan parsing failed; only flown route is shown


Map Options




Map Legend


Flown Route
Filed Route
Departure Airport
Arrival Airport
Navaid (VOR, NDB)
Fix

Horizontal Profiles

Position Reports

Time Latitude Longitude Heading Altitude Ground
Speed
28-Nov-18 17:44 34.196827 -118.351503 181 728ft 0kts
28-Nov-18 17:45 34.196827 -118.351503 181 728ft 0kts
28-Nov-18 17:46 34.196827 -118.351503 181 728ft 0kts
28-Nov-18 17:47 34.196827 -118.351503 181 728ft 0kts
28-Nov-18 17:48 34.196827 -118.351503 181 728ft 0kts
28-Nov-18 17:49 34.196827 -118.351503 181 728ft 0kts
28-Nov-18 17:50 34.196827 -118.351503 181 728ft 0kts
28-Nov-18 17:51 34.196827 -118.351503 181 728ft 0kts
28-Nov-18 17:52 34.196827 -118.351503 181 728ft 0kts
28-Nov-18 17:53 34.196827 -118.351503 181 728ft 0kts
28-Nov-18 17:54 34.196900 -118.351502 181 728ft 2kts
28-Nov-18 17:55 34.197353 -118.351407 212 728ft 0kts
28-Nov-18 17:56 34.197353 -118.351407 212 728ft 0kts
28-Nov-18 17:57 34.197353 -118.351407 212 728ft 0kts
28-Nov-18 17:58 34.197353 -118.351407 212 728ft 0kts
28-Nov-18 17:59 34.197353 -118.351407 212 728ft 0kts
28-Nov-18 18:00 34.197353 -118.351407 212 728ft 0kts
28-Nov-18 18:01 34.197352 -118.351408 212 728ft 0kts
28-Nov-18 18:02 34.197583 -118.352211 339 728ft 9kts
28-Nov-18 18:03 34.198831 -118.354783 269 728ft 14kts
28-Nov-18 18:04 34.203344 -118.356639 347 728ft 16kts
28-Nov-18 18:05 34.208383 -118.358045 347 728ft 11kts
28-Nov-18 18:06 34.211570 -118.359138 306 728ft 0kts
28-Nov-18 18:07 34.210198 -118.359934 166 729ft 37kts
28-Nov-18 18:08 34.176164 -118.351910 198 1691ft 155kts
28-Nov-18 18:09 34.143260 -118.386553 222 3949ft 162kts
28-Nov-18 18:10 34.109165 -118.423746 223 4026ft 162kts
28-Nov-18 18:11 34.128317 -118.475769 327 5258ft 242kts
28-Nov-18 18:12 34.191124 -118.517435 328 8321ft 271kts
28-Nov-18 18:13 34.258996 -118.562301 325 11428ft 294kts
28-Nov-18 18:14 34.336652 -118.614064 324 13083ft 354kts
28-Nov-18 18:15 34.424902 -118.672962 323 15836ft 368kts
28-Nov-18 18:16 34.513595 -118.735423 322 16408ft 373kts
28-Nov-18 18:17 34.603723 -118.799261 321 19469ft 381kts
28-Nov-18 18:18 34.696679 -118.865265 321 22139ft 391kts
28-Nov-18 18:19 34.779115 -118.947250 302 24408ft 380kts
28-Nov-18 18:20 34.845683 -119.048302 301 26486ft 384kts
28-Nov-18 18:21 34.910606 -119.147434 300 28128ft 389kts
28-Nov-18 18:22 34.977021 -119.249130 299 30425ft 374kts
28-Nov-18 18:23 35.041303 -119.347198 300 31971ft 370kts
28-Nov-18 18:24 35.104866 -119.444463 299 31972ft 363kts
28-Nov-18 18:25 35.167829 -119.541263 299 31964ft 364kts
28-Nov-18 18:26 35.230647 -119.638171 299 31959ft 363kts
28-Nov-18 18:27 35.293296 -119.735112 299 31949ft 362kts
28-Nov-18 18:28 35.355749 -119.832012 298 31941ft 362kts
28-Nov-18 18:29 35.418071 -119.929013 298 31929ft 362kts
28-Nov-18 18:30 35.480264 -120.026052 298 31928ft 362kts
28-Nov-18 18:31 35.542409 -120.122952 298 31924ft 361kts
28-Nov-18 18:32 35.604371 -120.220398 298 31920ft 361kts
28-Nov-18 18:33 35.664229 -120.314833 298 31916ft 361kts
28-Nov-18 18:34 35.711290 -120.420410 288 31911ft 351kts
28-Nov-18 18:35 35.751891 -120.525748 288 31910ft 350kts
28-Nov-18 18:36 35.793220 -120.634158 288 31910ft 350kts
28-Nov-18 18:37 35.834416 -120.742631 288 31909ft 350kts
28-Nov-18 18:38 35.875888 -120.851478 288 31908ft 350kts
28-Nov-18 18:39 35.917041 -120.960370 287 31906ft 350kts
28-Nov-18 18:40 35.958341 -121.069553 287 31901ft 351kts
28-Nov-18 18:41 35.999214 -121.178751 287 31896ft 350kts
28-Nov-18 18:42 36.040039 -121.288517 286 31890ft 351kts
28-Nov-18 18:43 36.102159 -121.384792 309 31880ft 383kts
28-Nov-18 18:44 36.191839 -121.460114 313 31865ft 391kts
28-Nov-18 18:45 36.283773 -121.532555 314 30236ft 391kts
28-Nov-18 18:46 36.376354 -121.605384 315 27092ft 395kts
28-Nov-18 18:47 36.471045 -121.680007 317 24812ft 393kts
28-Nov-18 18:48 36.559326 -121.749542 317 23023ft 367kts
28-Nov-18 18:49 36.644573 -121.817110 317 20832ft 359kts
28-Nov-18 18:50 36.728377 -121.882775 322 18694ft 357kts
28-Nov-18 18:51 36.825324 -121.918012 339 16735ft 363kts
28-Nov-18 18:52 36.921918 -121.944628 340 14840ft 350kts
28-Nov-18 18:53 37.011234 -121.975198 335 13871ft 307kts
28-Nov-18 18:54 37.085902 -122.005030 336 12793ft 285kts
28-Nov-18 18:55 37.161173 -122.034695 336 11186ft 284kts
28-Nov-18 18:56 37.236143 -122.064175 339 8861ft 285kts
28-Nov-18 18:57 37.311514 -122.093737 340 7307ft 281kts
28-Nov-18 18:58 37.379506 -122.120412 342 5930ft 247kts
28-Nov-18 18:59 37.436623 -122.139938 343 4898ft 214kts
28-Nov-18 19:00 37.490245 -122.158320 343 3931ft 191kts
28-Nov-18 19:01 37.535826 -122.182316 306 3112ft 181kts
28-Nov-18 19:02 37.560203 -122.235691 296 2161ft 168kts
28-Nov-18 19:03 37.581555 -122.286473 298 1301ft 154kts
28-Nov-18 19:04 37.600784 -122.332054 297 491ft 141kts
28-Nov-18 19:05 37.616572 -122.369980 297 21ft 59kts
28-Nov-18 19:06 37.619670 -122.379301 228 21ft 0kts
28-Nov-18 19:07 37.617791 -122.379504 167 21ft 17kts
28-Nov-18 19:08 37.613035 -122.382031 208 20ft 21kts
28-Nov-18 19:09 37.611233 -122.385675 263 20ft 19kts
28-Nov-18 19:10 37.611644 -122.386970 124 20ft 12kts
28-Nov-18 19:11 37.612446 -122.384652 13 20ft 0kts
28-Nov-18 19:12 37.612446 -122.384652 13 20ft 0kts

Navigation Log

Ident Type
Flight plan parsing failed, navigation log unavailable